
Distance (Route):
Temperature : 15.0°C
Humidity : 65.2%
Pressure : 0hPa| Receiver | Date | Latitude | Longitude | Direction | Speed | Altitude | Climb | Temperature | Humidity | Pressure | Voltage | Killtimer | Uptime | BKT | XDATA |
|---|---|---|---|---|---|---|---|---|---|---|---|---|---|---|---|
| LZ3DJ-18 | 2026-08-31 13:06:39 | 42.46514 | 23.64299 | 172° | 13km/h | 2248m | -18.6m/s | 15.0°C | 65.2% | 0hPa | 0V | 00:00:00 | 00:00:00 | 00:00:00 | |
| LZ4TU-5 | 2026-08-31 13:06:37 | 42.46521 | 23.64297 | 180° | 18km/h | 2285m | -18.2m/s | 14.7°C | 0% | 0hPa | 0V | 08:17:00 | 00:00:00 | 00:00:00 | |
| LZ4TU-5 | 2026-08-31 13:06:30 | 42.46537 | 23.64284 | 123° | 11km/h | 2412m | -18.4m/s | 13.4°C | 0% | 0hPa | 0V | 08:17:00 | 00:00:00 | 00:00:00 | |
| LZ4TU-5 | 2026-08-31 13:06:26 | 42.46544 | 23.64271 | 125° | 15km/h | 2483m | -16.9m/s | 12.7°C | 0% | 0hPa | 0V | 08:17:00 | 00:00:00 | 00:00:00 | |
| LZ4TU-5 | 2026-08-31 13:06:21 | 42.46555 | 23.64258 | 145° | 7km/h | 2574m | -19.2m/s | 11.9°C | 0% | 0hPa | 0V | 08:17:00 | 00:00:00 | 00:00:00 | |
| LZ4TU-5 | 2026-08-31 13:06:17 | 42.46557 | 23.64247 | 135° | 9km/h | 2645m | -19.5m/s | 11.3°C | 0% | 0hPa | 0V | 08:17:00 | 00:00:00 | 00:00:00 | |
| LZ3DJ-18 | 2026-08-31 13:06:16 | 42.46558 | 23.64245 | 116° | 7km/h | 2664m | -19.1m/s | 11.2°C | 79.1% | 0hPa | 0V | 00:00:00 | 00:00:00 | 00:00:00 | |
| LZ4TU-5 | 2026-08-31 13:06:11 | 42.46560 | 23.64238 | 28° | 5km/h | 2736m | -15.7m/s | 10.4°C | 0% | 0hPa | 0V | 08:17:00 | 00:00:00 | 00:00:00 | |
| LZ4TU-5 | 2026-08-31 13:06:07 | 42.46562 | 23.64238 | 208° | 7km/h | 2809m | -19.2m/s | 9.8°C | 0% | 0hPa | 0V | 08:17:00 | 00:00:00 | 00:00:00 | |
| LZ4TU-5 | 2026-08-31 13:06:03 | 42.46564 | 23.64239 | 97° | 5km/h | 2901m | -16.8m/s | 9.1°C | 0% | 0hPa | 0V | 08:17:00 | 00:00:00 | 00:00:00 | |
| LZ4TU-5 | 2026-08-31 13:05:58 | 42.46577 | 23.64254 | 235° | 18km/h | 2992m | -17.5m/s | 8.3°C | 0% | 0hPa | 0V | 08:17:00 | 00:00:00 | 00:00:00 | |
| LZ4TU-5 | 2026-08-31 13:05:54 | 42.46593 | 23.64261 | 183° | 24km/h | 3063m | -16.7m/s | 0°C | 0% | 0hPa | 0V | 08:17:00 | 00:00:00 | 00:00:00 | |
| LZ4TU-5 | 2026-08-31 13:05:49 | 42.46614 | 23.64270 | 194° | 15km/h | 3122m | -16.2m/s | 0°C | 0% | 0hPa | 0V | 08:17:00 | 00:00:00 | 00:00:00 | |
| LZ4TU-5 | 2026-08-31 13:05:45 | 42.46644 | 23.64276 | 181° | 11km/h | 3200m | -15.9m/s | 0°C | 0% | 0hPa | 0V | 00:00:00 | 00:00:00 | 00:00:00 | |
| LZ4TU-5 | 2026-08-31 13:05:40 | 42.46675 | 23.64271 | 171° | 22km/h | 3285m | -19.4m/s | 0°C | 0% | 0hPa | 0V | 00:00:00 | 00:00:00 | 00:00:00 | |
| LZ4TU-5 | 2026-08-31 13:05:35 | 42.46696 | 23.64266 | 177° | 24km/h | 3353m | -16.5m/s | 0°C | 0% | 0hPa | 0V | 00:00:00 | 00:00:00 | 00:00:00 | |
| LZ4TU-5 | 2026-08-31 13:05:31 | 42.46712 | 23.64250 | 122° | 11km/h | 3437m | -19.0m/s | 0°C | 0% | 0hPa | 0V | 00:00:00 | 00:00:00 | 00:00:00 | |
| LZ4TU-5 | 2026-08-31 13:05:27 | 42.46721 | 23.64237 | 144° | 16km/h | 3511m | -18.3m/s | 0°C | 0% | 0hPa | 0V | 00:00:00 | 00:00:00 | 00:00:00 | |
| LZ3DJ-18 | 2026-08-31 13:04:44 | 42.46879 | 23.63987 | 140° | 29km/h | 4302m | -20.1m/s | -0.2°C | 74.5% | 0hPa | 0V | 00:00:00 | 00:00:00 | 00:00:00 | |
| LZ4TU-5 | 2026-08-31 13:04:28 | 42.46942 | 23.63868 | 122° | 26km/h | 4608m | -19.8m/s | 0°C | 0% | 0hPa | 0V | 00:00:00 | 00:00:00 | 00:00:00 | |
| LZ3DJ-18 | 2026-08-31 13:04:01 | 42.46962 | 23.63650 | 81° | 20km/h | 5132m | -19.0m/s | -4.9°C | 95.2% | 0hPa | 0V | 00:00:00 | 00:00:00 | 00:00:00 | |
| LZ3DJ-18 | 2026-08-31 13:02:50 | 42.47118 | 23.63232 | 131° | 27km/h | 6529m | -20.6m/s | -11.3°C | 3.5% | 0hPa | 0V | 00:00:00 | 00:00:00 | 00:00:00 | |
| LZ3DJ-18 | 2026-08-31 13:02:23 | 42.47226 | 23.63018 | 120° | 29km/h | 7090m | -21.0m/s | -15.2°C | 6.6% | 0hPa | 0V | 08:22:00 | 00:00:00 | 00:00:00 | |
| LZ3DJ-18 | 2026-08-31 13:01:40 | 42.47407 | 23.62602 | 118° | 33km/h | 7997m | -22.3m/s | -22.3°C | 8.4% | 0hPa | 0V | 08:22:00 | 00:00:00 | 00:00:00 | |
| LZ3DJ-18 | 2026-08-31 13:00:58 | 42.47595 | 23.62202 | 141° | 40km/h | 8926m | -22.9m/s | -29.6°C | 8.5% | 0hPa | 0V | 08:23:00 | 00:00:00 | 00:00:00 | |
| LZ3DJ-18 | 2026-08-31 13:00:38 | 42.47780 | 23.62030 | 149° | 47km/h | 9416m | -24.6m/s | -33.8°C | 11.9% | 0hPa | 0V | 08:23:00 | 00:00:00 | 00:00:00 | |
| LZ3DJ-18 | 2026-08-31 13:00:18 | 42.47982 | 23.61879 | 164° | 44km/h | 9900m | -24.8m/s | -38.0°C | 21.1% | 0hPa | 0V | 08:23:00 | 00:00:00 | 00:00:00 | |
| LZ3DJ-18 | 2026-08-31 12:59:58 | 42.48234 | 23.61790 | 166° | 58km/h | 10392m | -25.2m/s | -41.5°C | 23.7% | 0hPa | 0V | 08:23:00 | 00:00:00 | 00:00:00 | |
| LZ3DJ-18 | 2026-08-31 12:59:37 | 42.48575 | 23.61667 | 167° | 68km/h | 10932m | -27.0m/s | -45.6°C | 37.7% | 0hPa | 0V | 08:24:00 | 00:00:00 | 00:00:00 | |
| LZ3DJ-18 | 2026-08-31 12:59:17 | 42.48910 | 23.61579 | 169° | 68km/h | 11478m | -28.0m/s | -50.3°C | 36.9% | 0hPa | 0V | 08:24:00 | 00:00:00 | 00:00:00 | |
| LZ3DJ-18 | 2026-08-31 12:58:36 | 42.49596 | 23.61334 | 166° | 55km/h | 12641m | -29.9m/s | -56.1°C | 13.9% | 0hPa | 0V | 00:00:00 | 00:00:00 | 00:00:00 | |
| LZ3DJ-18 | 2026-08-31 12:58:15 | 42.49867 | 23.61232 | 168° | 53km/h | 13269m | -30.8m/s | -59.8°C | 11.4% | 0hPa | 0V | 00:00:00 | 00:00:00 | 00:00:00 | |
| LZ3DJ-18 | 2026-08-31 12:57:53 | 42.50121 | 23.61045 | 148° | 49km/h | 13952m | -31.9m/s | -59.7°C | 6.3% | 0hPa | 0V | 00:00:00 | 00:00:00 | 00:00:00 | |
| LZ3DJ-18 | 2026-08-31 12:57:12 | 42.50304 | 23.60609 | 79° | 35km/h | 15321m | -36.3m/s | -58.8°C | 2.8% | 0hPa | 0V | 00:00:00 | 00:00:00 | 00:00:00 | |
| LZ3DJ-18 | 2026-08-31 12:56:51 | 42.50352 | 23.60301 | 129° | 35km/h | 16082m | -37.2m/s | -61.1°C | 2.6% | 0hPa | 0V | 00:00:00 | 00:00:00 | 00:00:00 | |
| LZ3DJ-18 | 2026-08-31 12:56:27 | 42.50362 | 23.60200 | 46° | 29km/h | 17008m | -40.5m/s | -59.3°C | 1.8% | 0hPa | 0V | 00:00:00 | 00:00:00 | 00:00:00 | |
| LZ3DJ-18 | 2026-08-31 12:53:50 | 42.50069 | 23.59874 | 108° | 5km/h | 25503m | -73.6m/s | -48.9°C | 1.1% | 0hPa | 0V | 00:00:00 | 00:00:00 | 00:00:00 | |
| LZ3DJ-18 | 2026-08-31 12:53:23 | 42.50072 | 23.59902 | 234° | 9km/h | 27442m | -53.5m/s | -46.9°C | 0.9% | 0hPa | 0V | 00:00:00 | 00:00:00 | 00:00:00 | |
| LZ3DJ-18 | 2026-08-31 12:52:59 | 42.50120 | 23.60015 | 230° | 9km/h | 27589m | 5.6m/s | -47.1°C | 1.0% | 0hPa | 0V | 00:00:00 | 00:00:00 | 00:00:00 | |
| LZ4TU-5 | 2026-08-31 12:49:26 | 42.49978 | 23.60317 | 188° | 13km/h | 26278m | 5.2m/s | -47.0°C | 0.9% | 0hPa | 0V | 00:00:00 | 00:00:00 | 00:00:00 | |
| LZ4TU-5 | 2026-08-31 12:49:22 | 42.49986 | 23.60314 | 0° | 0km/h | 26247m | 7.5m/s | -47.3°C | 1.0% | 0hPa | 0V | 00:00:00 | 00:00:00 | 00:00:00 | |
| LZ4TU-5 | 2026-08-31 12:49:17 | 42.49985 | 23.60313 | 144° | 5km/h | 26217m | 5.5m/s | -47.7°C | 1.0% | 0hPa | 0V | 00:00:00 | 00:00:00 | 00:00:00 | |
| LZ3DJ-18 | 2026-08-31 12:47:20 | 42.50088 | 23.59991 | 55° | 15km/h | 25529m | 5.6m/s | -50.6°C | 1.1% | 0hPa | 0V | 00:00:00 | 00:00:00 | 00:00:00 | |
| LZ4TU-5 | 2026-08-31 12:47:18 | 42.50084 | 23.59985 | 46° | 7km/h | 25516m | 6.1m/s | -50.6°C | 1.1% | 0hPa | 0V | 00:00:00 | 00:00:00 | 00:00:00 | |
| LZ4TU-5 | 2026-08-31 12:47:13 | 42.50077 | 23.59977 | 38° | 5km/h | 25486m | 7.0m/s | -50.4°C | 1.1% | 0hPa | 0V | 00:00:00 | 00:00:00 | 00:00:00 | |
| LZ3DJ-18 | 2026-08-31 12:46:59 | 42.50054 | 23.59958 | 316° | 15km/h | 25403m | 4.9m/s | -50.6°C | 1.1% | 0hPa | 0V | 00:00:00 | 00:00:00 | 00:00:00 | |
| LZ3DJ-18 | 2026-08-31 12:46:38 | 42.50018 | 23.59984 | 304° | 2km/h | 25282m | 6.7m/s | -50.5°C | 1.2% | 0hPa | 0V | 00:00:00 | 00:00:00 | 00:00:00 | |
| LZ3DJ-18 | 2026-08-31 12:46:18 | 42.50011 | 23.59958 | 83° | 16km/h | 25147m | 8.7m/s | -50.6°C | 1.1% | 0hPa | 0V | 00:00:00 | 00:00:00 | 00:00:00 | |
| LZ3DJ-18 | 2026-08-31 12:45:58 | 42.50018 | 23.59878 | 92° | 7km/h | 25021m | 6.1m/s | -50.9°C | 1.2% | 0hPa | 0V | 00:00:00 | 00:00:00 | 00:00:00 | |
| LZ3DJ-18 | 2026-08-31 12:45:38 | 42.50053 | 23.59825 | 130° | 16km/h | 24889m | 5.1m/s | -50.9°C | 1.1% | 0hPa | 0V | 00:00:00 | 00:00:00 | 00:00:00 | |
| LZ4TU-5 | 2026-08-31 12:45:24 | 42.50078 | 23.59756 | 84° | 24km/h | 24803m | 6.4m/s | -51.2°C | 1.2% | 0hPa | 0V | 00:00:00 | 00:00:00 | 00:00:00 | |
| LZ4TU-5 | 2026-08-31 12:45:19 | 42.50085 | 23.59716 | 130° | 27km/h | 24770m | 9.0m/s | -51.3°C | 1.2% | 0hPa | 0V | 00:00:00 | 00:00:00 | 00:00:00 | |
| LZ3DJ-18 | 2026-08-31 12:45:17 | 42.50096 | 23.59703 | 146° | 29km/h | 24757m | 6.9m/s | -51.2°C | 1.2% | 0hPa | 0V | 00:00:00 | 00:00:00 | 00:00:00 | |
| LZ4TU-5 | 2026-08-31 12:43:20 | 42.49884 | 23.59198 | 317° | 15km/h | 24019m | 5.8m/s | -53.3°C | 1.3% | 0hPa | 0V | 00:00:00 | 00:00:00 | 00:00:00 | |
| LZ4TU-5 | 2026-08-31 12:43:15 | 42.49874 | 23.59213 | 333° | 9km/h | 23988m | 7.0m/s | -53.2°C | 1.3% | 0hPa | 0V | 00:00:00 | 00:00:00 | 00:00:00 | |
| LZ3DJ-18 | 2026-08-31 12:42:11 | 42.49806 | 23.59288 | 191° | 2km/h | 23582m | 5.3m/s | -53.1°C | 1.3% | 0hPa | 0V | 00:00:00 | 00:00:00 | 00:00:00 | |
| LZ3DJ-18 | 2026-08-31 12:41:46 | 42.49797 | 23.59311 | 250° | 4km/h | 23420m | 4.3m/s | -52.9°C | 1.3% | 0hPa | 0V | 00:00:00 | 00:00:00 | 00:00:00 | |
| LZ3DJ-18 | 2026-08-31 12:41:25 | 42.49813 | 23.59286 | 152° | 5km/h | 23284m | 5.2m/s | -53.4°C | 1.3% | 0hPa | 0V | 00:00:00 | 00:00:00 | 00:00:00 | |
| LZ3DJ-18 | 2026-08-31 12:41:04 | 42.49790 | 23.59267 | 332° | 13km/h | 23149m | 7.4m/s | -53.4°C | 1.3% | 0hPa | 0V | 00:00:00 | 00:00:00 | 00:00:00 | |
| LZ4TU-5 | 2026-08-31 12:40:59 | 42.49771 | 23.59277 | 329° | 13km/h | 23116m | 6.9m/s | -53.3°C | 1.3% | 0hPa | 0V | 00:00:00 | 00:00:00 | 00:00:00 | |
| LZ4TU-5 | 2026-08-31 12:40:55 | 42.49762 | 23.59286 | 316° | 9km/h | 23090m | 7.4m/s | -53.4°C | 1.3% | 0hPa | 0V | 00:00:00 | 00:00:00 | 00:00:00 | |
| LZ3DJ-18 | 2026-08-31 12:40:44 | 42.49736 | 23.59316 | 286° | 11km/h | 23018m | 6.7m/s | -53.4°C | 1.3% | 0hPa | 0V | 00:00:00 | 00:00:00 | 00:00:00 | |
| LZ3DJ-18 | 2026-08-31 12:40:22 | 42.49737 | 23.59347 | 12° | 5km/h | 22879m | 6.7m/s | -52.5°C | 1.3% | 0hPa | 0V | 00:00:00 | 00:00:00 | 00:00:00 | |
| LZ3DJ-18 | 2026-08-31 12:39:58 | 42.49755 | 23.59311 | 150° | 7km/h | 22727m | 7.5m/s | -52.9°C | 1.4% | 0hPa | 0V | 00:00:00 | 00:00:00 | 00:00:00 | |
| LZ4TU-5 | 2026-08-31 12:38:45 | 42.49601 | 23.59258 | 350° | 18km/h | 22289m | 6.3m/s | -52.9°C | 1.3% | 0hPa | 0V | 00:00:00 | 00:00:00 | 00:00:00 | |
| LZ4TU-5 | 2026-08-31 12:38:40 | 42.49579 | 23.59265 | 350° | 15km/h | 22258m | 6.8m/s | -52.9°C | 1.3% | 0hPa | 0V | 00:00:00 | 00:00:00 | 00:00:00 | |
| LZ3DJ-18 | 2026-08-31 12:38:04 | 42.49505 | 23.59343 | 8° | 5km/h | 22048m | 4.3m/s | -52.8°C | 1.3% | 0hPa | 0V | 00:00:00 | 00:00:00 | 00:00:00 | |
| LZ3DJ-18 | 2026-08-31 12:37:42 | 42.49448 | 23.59300 | 46° | 16km/h | 21924m | 5.3m/s | -52.8°C | 1.3% | 0hPa | 0V | 00:00:00 | 00:00:00 | 00:00:00 | |
| LZ3DJ-18 | 2026-08-31 12:37:20 | 42.49357 | 23.59258 | 358° | 24km/h | 21803m | 5.2m/s | -53.9°C | 1.3% | 0hPa | 0V | 00:00:00 | 00:00:00 | 00:00:00 | |
| LZ3DJ-18 | 2026-08-31 12:36:58 | 42.49202 | 23.59264 | 341° | 29km/h | 21675m | 4.1m/s | -54.6°C | 1.4% | 0hPa | 0V | 00:00:00 | 00:00:00 | 00:00:00 | |
| LZ4TU-5 | 2026-08-31 12:36:47 | 42.49140 | 23.59269 | 3° | 27km/h | 21611m | 4.9m/s | -54.6°C | 1.4% | 0hPa | 0V | 00:00:00 | 00:00:00 | 00:00:00 | |
| LZ4TU-5 | 2026-08-31 12:36:42 | 42.49109 | 23.59269 | 350° | 22km/h | 21584m | 6.5m/s | -54.7°C | 1.4% | 0hPa | 0V | 00:00:00 | 00:00:00 | 00:00:00 | |
| LZ3DJ-18 | 2026-08-31 12:36:37 | 42.49082 | 23.59271 | 8° | 27km/h | 21556m | 5.8m/s | -54.7°C | 1.4% | 0hPa | 0V | 00:00:00 | 00:00:00 | 00:00:00 | |
| LZ3DJ-18 | 2026-08-31 12:36:17 | 42.48946 | 23.59269 | 348° | 26km/h | 21441m | 4.9m/s | -55.1°C | 1.4% | 0hPa | 0V | 00:00:00 | 00:00:00 | 00:00:00 | |
| LZ3DJ-18 | 2026-08-31 12:35:57 | 42.48799 | 23.59316 | 338° | 33km/h | 21323m | 4.9m/s | -55.4°C | 1.5% | 0hPa | 0V | 00:00:00 | 00:00:00 | 00:00:00 | |
| LZ3DJ-18 | 2026-08-31 12:35:36 | 42.48682 | 23.59441 | 313° | 20km/h | 21202m | 5.2m/s | -55.2°C | 1.5% | 0hPa | 0V | 00:00:00 | 00:00:00 | 00:00:00 | |
| LZ3DJ-18 | 2026-08-31 12:35:13 | 42.48595 | 23.59599 | 322° | 24km/h | 21071m | 4.8m/s | -54.9°C | 1.4% | 0hPa | 0V | 00:00:00 | 00:00:00 | 00:00:00 | |
| LZ3DJ-18 | 2026-08-31 12:34:53 | 42.48542 | 23.59695 | 331° | 15km/h | 20958m | 3.5m/s | -55.2°C | 1.5% | 0hPa | 0V | 00:00:00 | 00:00:00 | 00:00:00 | |
| LZ4TU-5 | 2026-08-31 12:34:36 | 42.48487 | 23.59781 | 306° | 27km/h | 20864m | 4.9m/s | -55.2°C | 0% | 0hPa | 0V | 00:00:00 | 00:00:00 | 00:00:00 | |
| LZ4TU-5 | 2026-08-31 12:34:32 | 42.48471 | 23.59811 | 315° | 27km/h | 20841m | 4.6m/s | -55.3°C | 0% | 0hPa | 0V | 00:00:00 | 00:00:00 | 00:00:00 | |
| LZ4TU-5 | 2026-08-31 12:32:35 | 42.48222 | 23.60053 | 345° | 7km/h | 20209m | 4.3m/s | -56.3°C | 0% | 0hPa | 0V | 00:00:00 | 00:00:00 | 00:00:00 | |
| LZ4TU-5 | 2026-08-31 12:32:31 | 42.48212 | 23.60053 | 355° | 15km/h | 20186m | 6.0m/s | -56.3°C | 0% | 0hPa | 0V | 00:00:00 | 00:00:00 | 00:00:00 | |
| LZ3DJ-18 | 2026-08-31 12:32:22 | 42.48182 | 23.60047 | 24° | 5km/h | 20137m | 6.7m/s | -56.3°C | 1.6% | 0hPa | 0V | 00:00:00 | 00:00:00 | 00:00:00 | |
| LZ3DJ-18 | 2026-08-31 12:31:50 | 42.48052 | 23.59989 | 33° | 22km/h | 19964m | 4.5m/s | -56.5°C | 1.6% | 0hPa | 0V | 00:00:00 | 00:00:00 | 00:00:00 | |
| LZ3DJ-18 | 2026-08-31 12:31:29 | 42.47964 | 23.59962 | 358° | 13km/h | 19858m | 5.8m/s | -55.7°C | 1.5% | 0hPa | 0V | 00:00:00 | 00:00:00 | 00:00:00 | |
| LZ3DJ-18 | 2026-08-31 12:31:07 | 42.47867 | 23.59974 | 11° | 15km/h | 19728m | 5.6m/s | -56.6°C | 1.6% | 0hPa | 0V | 00:00:00 | 00:00:00 | 00:00:00 | |
| LZ3DJ-18 | 2026-08-31 12:30:46 | 42.47821 | 23.60002 | 0° | 0km/h | 19614m | 6.4m/s | -56.6°C | 1.6% | 0hPa | 0V | 00:00:00 | 00:00:00 | 00:00:00 | |
| LZ4TU-5 | 2026-08-31 12:30:42 | 42.47819 | 23.59999 | 51° | 5km/h | 19592m | 4.9m/s | -56.5°C | 0% | 0hPa | 0V | 00:00:00 | 00:00:00 | 00:00:00 | |
| LZ4TU-5 | 2026-08-31 12:30:38 | 42.47818 | 23.59997 | 184° | 4km/h | 19569m | 4.1m/s | -56.6°C | 0% | 0hPa | 0V | 00:00:00 | 00:00:00 | 00:00:00 | |
| LZ3DJ-18 | 2026-08-31 12:30:24 | 42.47834 | 23.59986 | 166° | 11km/h | 19495m | 6.1m/s | -57.1°C | 1.6% | 0hPa | 0V | 00:00:00 | 00:00:00 | 00:00:00 | |
| LZ3DJ-18 | 2026-08-31 12:29:54 | 42.47909 | 23.59869 | 109° | 20km/h | 19332m | 4.3m/s | -57.2°C | 1.6% | 0hPa | 0V | 00:00:00 | 00:00:00 | 00:00:00 | |
| LZ3DJ-18 | 2026-08-31 12:29:33 | 42.47933 | 23.59725 | 96° | 26km/h | 19226m | 4.1m/s | -57.9°C | 1.8% | 0hPa | 0V | 00:00:00 | 00:00:00 | 00:00:00 | |
| LZ4TU-5 | 2026-08-31 12:28:53 | 42.47858 | 23.59462 | 87° | 13km/h | 19002m | 5.7m/s | -58.0°C | 0% | 0hPa | 0V | 00:00:00 | 00:00:00 | 00:00:00 | |
| LZ4TU-5 | 2026-08-31 12:28:48 | 42.47856 | 23.59441 | 85° | 7km/h | 18973m | 5.2m/s | -57.7°C | 0% | 0hPa | 0V | 00:00:00 | 00:00:00 | 00:00:00 | |
| LZ3DJ-18 | 2026-08-31 12:28:34 | 42.47877 | 23.59400 | 135° | 7km/h | 18897m | 5.8m/s | -57.7°C | 1.8% | 0hPa | 0V | 00:00:00 | 00:00:00 | 00:00:00 | |
| LZ3DJ-18 | 2026-08-31 12:28:14 | 42.47925 | 23.59382 | 200° | 9km/h | 18788m | 4.2m/s | -57.7°C | 1.7% | 0hPa | 0V | 00:00:00 | 00:00:00 | 00:00:00 | |
| LZ3DJ-18 | 2026-08-31 12:27:52 | 42.47940 | 23.59360 | 36° | 11km/h | 18674m | 4.8m/s | -57.9°C | 1.7% | 0hPa | 0V | 00:00:00 | 00:00:00 | 00:00:00 | |
| LZ3DJ-18 | 2026-08-31 12:27:30 | 42.47863 | 23.59338 | 22° | 13km/h | 18550m | 6.1m/s | -59.2°C | 2.0% | 0hPa | 0V | 00:00:00 | 00:00:00 | 00:00:00 | |
| LZ3DJ-18 | 2026-08-31 12:27:10 | 42.47780 | 23.59312 | 10° | 22km/h | 18442m | 6.5m/s | -59.0°C | 2.0% | 0hPa | 0V | 00:00:00 | 00:00:00 | 00:00:00 | |
| LZ4TU-5 | 2026-08-31 12:27:03 | 42.47749 | 23.59302 | 29° | 15km/h | 18403m | 6.7m/s | -58.9°C | 0% | 0hPa | 0V | 00:00:00 | 00:00:00 | 00:00:00 | |
| LZ4TU-5 | 2026-08-31 12:26:59 | 42.47732 | 23.59293 | 10° | 24km/h | 18383m | 5.0m/s | -58.9°C | 0% | 0hPa | 0V | 00:00:00 | 00:00:00 | 00:00:00 | |
| LZ3DJ-18 | 2026-08-31 12:26:48 | 42.47684 | 23.59269 | 46° | 13km/h | 18325m | 4.8m/s | -58.5°C | 2.0% | 0hPa | 0V | 00:00:00 | 00:00:00 | 00:00:00 | |
| LZ3DJ-18 | 2026-08-31 12:26:27 | 42.47617 | 23.59217 | 40° | 13km/h | 18209m | 5.6m/s | -58.7°C | 1.9% | 0hPa | 0V | 00:00:00 | 00:00:00 | 00:00:00 | |
| LZ3DJ-18 | 2026-08-31 12:26:06 | 42.47604 | 23.59137 | 79° | 7km/h | 18100m | 4.4m/s | -59.2°C | 2.0% | 0hPa | 0V | 00:00:00 | 00:00:00 | 00:00:00 | |
| LZ3DJ-18 | 2026-08-31 12:25:46 | 42.47611 | 23.58980 | 83° | 26km/h | 17990m | 5.3m/s | -59.3°C | 2.1% | 0hPa | 0V | 00:00:00 | 00:00:00 | 00:00:00 | |
| LZ3DJ-18 | 2026-08-31 12:25:24 | 42.47592 | 23.58842 | 69° | 16km/h | 17877m | 4.9m/s | -59.3°C | 2.1% | 0hPa | 0V | 00:00:00 | 00:00:00 | 00:00:00 | |
| LZ4TU-5 | 2026-08-31 12:25:13 | 42.47570 | 23.58767 | 73° | 16km/h | 17813m | 4.3m/s | -59.0°C | 0% | 0hPa | 0V | 00:00:00 | 00:00:00 | 00:00:00 | |
| LZ4TU-5 | 2026-08-31 12:25:09 | 42.47564 | 23.58751 | 57° | 13km/h | 17792m | 4.9m/s | -58.9°C | 0% | 0hPa | 0V | 00:00:00 | 00:00:00 | 00:00:00 | |
| LZ3DJ-18 | 2026-08-31 12:25:04 | 42.47558 | 23.58730 | 77° | 16km/h | 17766m | 4.2m/s | -58.9°C | 2.1% | 0hPa | 0V | 00:00:00 | 00:00:00 | 00:00:00 | |
| LZ3DJ-18 | 2026-08-31 12:24:43 | 42.47539 | 23.58660 | 95° | 11km/h | 17660m | 4.1m/s | -59.0°C | 2.1% | 0hPa | 0V | 00:00:00 | 00:00:00 | 00:00:00 | |
| LZ3DJ-18 | 2026-08-31 12:24:23 | 42.47545 | 23.58570 | 96° | 13km/h | 17549m | 6.5m/s | -59.0°C | 2.0% | 0hPa | 0V | 00:00:00 | 00:00:00 | 00:00:00 | |
| LZ3DJ-18 | 2026-08-31 12:24:02 | 42.47539 | 23.58429 | 83° | 27km/h | 17440m | 4.8m/s | -59.0°C | 2.0% | 0hPa | 0V | 00:00:00 | 00:00:00 | 00:00:00 | |
| LZ3DJ-18 | 2026-08-31 12:23:41 | 42.47530 | 23.58258 | 86° | 26km/h | 17334m | 5.2m/s | -59.6°C | 2.2% | 0hPa | 0V | 00:00:00 | 00:00:00 | 00:00:00 | |
| LZ4TU-5 | 2026-08-31 12:23:23 | 42.47478 | 23.58087 | 69° | 31km/h | 17235m | 4.9m/s | -59.9°C | 0% | 0hPa | 0V | 00:00:00 | 00:00:00 | 00:00:00 | |
| LZ3DJ-18 | 2026-08-31 12:23:21 | 42.47472 | 23.58067 | 70° | 35km/h | 17225m | 5.8m/s | -60.1°C | 2.3% | 0hPa | 0V | 00:00:00 | 00:00:00 | 00:00:00 | |
| LZ4TU-5 | 2026-08-31 12:23:18 | 42.47461 | 23.58034 | 59° | 33km/h | 17209m | 3.8m/s | -59.9°C | 0% | 0hPa | 0V | 00:00:00 | 00:00:00 | 00:00:00 | |
| LZ3DJ-18 | 2026-08-31 12:23:00 | 42.47368 | 23.57894 | 42° | 24km/h | 17114m | 5.3m/s | -59.8°C | 2.3% | 0hPa | 0V | 00:00:00 | 00:00:00 | 00:00:00 | |
| LZ3DJ-18 | 2026-08-31 12:22:38 | 42.47275 | 23.57807 | 21° | 24km/h | 17009m | 4.3m/s | -60.0°C | 2.3% | 0hPa | 0V | 00:00:00 | 00:00:00 | 00:00:00 | |
| LZ3DJ-18 | 2026-08-31 12:21:36 | 42.47152 | 23.57679 | 110° | 20km/h | 16683m | 5.7m/s | -59.6°C | 2.5% | 0hPa | 0V | 00:00:00 | 00:00:00 | 00:00:00 | |
| LZ4TU-5 | 2026-08-31 12:21:34 | 42.47155 | 23.57665 | 109° | 20km/h | 16672m | 5.7m/s | -59.6°C | 0% | 0hPa | 0V | 00:00:00 | 00:00:00 | 00:00:00 | |
| LZ4TU-5 | 2026-08-31 12:21:29 | 42.47160 | 23.57634 | 98° | 18km/h | 16647m | 5.6m/s | -59.6°C | 0% | 0hPa | 0V | 00:00:00 | 00:00:00 | 00:00:00 | |
| LZ3DJ-18 | 2026-08-31 12:21:15 | 42.47170 | 23.57563 | 115° | 15km/h | 16580m | 4.9m/s | -59.8°C | 2.7% | 0hPa | 0V | 00:00:00 | 00:00:00 | 00:00:00 | |
| LZ3DJ-18 | 2026-08-31 12:20:54 | 42.47199 | 23.57519 | 156° | 15km/h | 16480m | 4.5m/s | -59.9°C | 2.8% | 0hPa | 0V | 00:00:00 | 00:00:00 | 00:00:00 | |
| LZ3DJ-18 | 2026-08-31 12:20:33 | 42.47293 | 23.57454 | 146° | 33km/h | 16374m | 4.6m/s | -60.6°C | 3.0% | 0hPa | 0V | 00:00:00 | 00:00:00 | 00:00:00 | |
| LZ3DJ-18 | 2026-08-31 12:20:12 | 42.47413 | 23.57322 | 136° | 35km/h | 16274m | 3.9m/s | -60.9°C | 3.4% | 0hPa | 0V | 00:00:00 | 00:00:00 | 00:00:00 | |
| LZ3DJ-18 | 2026-08-31 12:19:51 | 42.47521 | 23.57096 | 128° | 33km/h | 16172m | 5.2m/s | -61.1°C | 3.7% | 0hPa | 0V | 00:00:00 | 00:00:00 | 00:00:00 | |
| LZ4TU-5 | 2026-08-31 12:19:36 | 42.47596 | 23.56927 | 116° | 47km/h | 16091m | 4.9m/s | -61.5°C | 0% | 0hPa | 0V | 00:00:00 | 00:00:00 | 00:00:00 | |
| LZ3DJ-18 | 2026-08-31 12:19:31 | 42.47624 | 23.56851 | 119° | 49km/h | 16067m | 5.5m/s | -61.3°C | 3.7% | 0hPa | 0V | 00:00:00 | 00:00:00 | 00:00:00 | |
| LZ3DJ-18 | 2026-08-31 12:19:10 | 42.47725 | 23.56526 | 110° | 49km/h | 15959m | 5.9m/s | -62.7°C | 4.1% | 0hPa | 0V | 00:00:00 | 00:00:00 | 00:00:00 | |
| LZ3DJ-18 | 2026-08-31 12:18:49 | 42.47773 | 23.56163 | 96° | 55km/h | 15861m | 4.8m/s | -62.4°C | 4.1% | 0hPa | 0V | 00:00:00 | 00:00:00 | 00:00:00 | |
| LZ3DJ-18 | 2026-08-31 12:18:28 | 42.47779 | 23.55796 | 88° | 42km/h | 15754m | 4.3m/s | -61.8°C | 4.0% | 0hPa | 0V | 00:00:00 | 00:00:00 | 00:00:00 | |
| LZ3DJ-18 | 2026-08-31 12:18:08 | 42.47747 | 23.55490 | 80° | 44km/h | 15657m | 4.9m/s | -61.0°C | 4.0% | 0hPa | 0V | 00:00:00 | 00:00:00 | 00:00:00 | |
| LZ4TU-5 | 2026-08-31 12:17:48 | 42.47711 | 23.55200 | 84° | 35km/h | 15552m | 3.1m/s | -60.2°C | 0% | 0hPa | 0V | 00:00:00 | 00:00:00 | 00:00:00 | |
| LZ4TU-5 | 2026-08-31 12:17:43 | 42.47700 | 23.55139 | 74° | 40km/h | 15528m | 5.2m/s | -60.1°C | 0% | 0hPa | 0V | 00:00:00 | 00:00:00 | 00:00:00 | |
| LZ4TU-5 | 2026-08-31 12:15:54 | 42.47765 | 23.54180 | 150° | 37km/h | 14964m | 4.9m/s | -60.9°C | 0% | 0hPa | 0V | 00:00:00 | 00:00:00 | 00:00:00 | |
| LZ4TU-5 | 2026-08-31 12:15:49 | 42.47805 | 23.54140 | 141° | 42km/h | 14934m | 5.5m/s | -60.8°C | 0% | 0hPa | 0V | 00:00:00 | 00:00:00 | 00:00:00 | |
| LZ3DJ-18 | 2026-08-31 12:14:44 | 42.48375 | 23.53348 | 126° | 53km/h | 14596m | 6.4m/s | -61.5°C | 8.4% | 0hPa | 0V | 00:00:00 | 00:00:00 | 00:00:00 | |
| LZ4TU-5 | 2026-08-31 12:14:08 | 42.48562 | 23.52843 | 107° | 40km/h | 14398m | 4.1m/s | -60.8°C | 0% | 0hPa | 0V | 00:00:00 | 00:00:00 | 00:00:00 | |
| LZ4TU-5 | 2026-08-31 12:14:04 | 42.48574 | 23.52791 | 113° | 40km/h | 14376m | 5.5m/s | -60.5°C | 0% | 0hPa | 0V | 00:00:00 | 00:00:00 | 00:00:00 | |
| LZ3DJ-18 | 2026-08-31 12:13:40 | 42.48668 | 23.52529 | 125° | 42km/h | 14242m | 5.5m/s | -60.9°C | 9.1% | 0hPa | 0V | 00:00:00 | 00:00:00 | 00:00:00 | |
| LZ3DJ-18 | 2026-08-31 12:13:17 | 42.48789 | 23.52280 | 124° | 38km/h | 14117m | 5.5m/s | -60.4°C | 8.5% | 0hPa | 0V | 00:00:00 | 00:00:00 | 00:00:00 | |
| LZ3DJ-18 | 2026-08-31 12:12:57 | 42.48906 | 23.52074 | 138° | 35km/h | 14012m | 4.8m/s | -59.5°C | 8.5% | 0hPa | 0V | 00:00:00 | 00:00:00 | 00:00:00 | |
| LZ3DJ-18 | 2026-08-31 12:12:36 | 42.49049 | 23.51895 | 145° | 38km/h | 13901m | 6.6m/s | -58.9°C | 8.6% | 0hPa | 0V | 00:00:00 | 00:00:00 | 00:00:00 | |
| LZ4TU-5 | 2026-08-31 12:12:25 | 42.49142 | 23.51803 | 144° | 40km/h | 13844m | 6.4m/s | -58.6°C | 0% | 0hPa | 0V | 00:00:00 | 00:00:00 | 00:00:00 | |
| LZ4TU-5 | 2026-08-31 12:12:21 | 42.49175 | 23.51773 | 150° | 40km/h | 13822m | 6.1m/s | 0°C | 0% | 0hPa | 0V | 00:00:00 | 00:00:00 | 00:00:00 | |
| LZ3DJ-18 | 2026-08-31 12:12:16 | 42.49221 | 23.51729 | 142° | 46km/h | 13795m | 4.7m/s | -58.7°C | 10.1% | 0hPa | 0V | 00:00:00 | 00:00:00 | 00:00:00 | |
| LZ3DJ-18 | 2026-08-31 12:11:55 | 42.49444 | 23.51510 | 151° | 66km/h | 13683m | 3.6m/s | -59.2°C | 11.3% | 0hPa | 0V | 00:00:00 | 00:00:00 | 00:00:00 | |
| LZ3DJ-18 | 2026-08-31 12:11:30 | 42.49775 | 23.51222 | 142° | 60km/h | 13561m | 5.7m/s | -60.6°C | 15.2% | 0hPa | 0V | 00:00:00 | 00:00:00 | 00:00:00 | |
| LZ4TU-5 | 2026-08-31 12:10:41 | 42.50334 | 23.50814 | 165° | 49km/h | 13315m | 5.4m/s | 0°C | 0% | 0hPa | 0V | 00:00:00 | 00:00:00 | 00:00:00 | |
| LZ4TU-5 | 2026-08-31 12:10:36 | 42.50397 | 23.50790 | 164° | 55km/h | 13291m | 5.3m/s | 0°C | 0% | 0hPa | 0V | 00:00:00 | 00:00:00 | 00:00:00 | |
| LZ4TU-5 | 2026-08-31 12:08:55 | 42.51796 | 23.50266 | 165° | 51km/h | 12794m | 7.3m/s | 0°C | 0% | 0hPa | 0V | 00:00:00 | 00:00:00 | 00:00:00 | |
| LZ4TU-5 | 2026-08-31 12:08:50 | 42.51855 | 23.50241 | 163° | 51km/h | 12768m | 5.2m/s | 0°C | 0% | 0hPa | 0V | 00:00:00 | 00:00:00 | 00:00:00 | |
| LZ3DJ-18 | 2026-08-31 12:07:37 | 42.52951 | 23.49776 | 163° | 69km/h | 12373m | 6.3m/s | -56.1°C | 29.3% | 0hPa | 0V | 00:00:00 | 00:00:00 | 00:00:00 | |
| LZ3DJ-18 | 2026-08-31 12:07:16 | 42.53297 | 23.49639 | 163° | 73km/h | 12272m | 4.2m/s | -56.1°C | 33.0% | 0hPa | 0V | 00:00:00 | 00:00:00 | 00:00:00 | |
| LZ4TU-5 | 2026-08-31 12:07:10 | 42.53393 | 23.49589 | 160° | 66km/h | 12241m | 4.3m/s | 0°C | 0% | 0hPa | 0V | 00:00:00 | 00:00:00 | 00:00:00 | |
| LZ4TU-5 | 2026-08-31 12:07:05 | 42.53473 | 23.49556 | 165° | 68km/h | 12216m | 5.4m/s | 0°C | 0% | 0hPa | 0V | 00:00:00 | 00:00:00 | 00:00:00 | |
| LZ3DJ-18 | 2026-08-31 12:06:56 | 42.53614 | 23.49493 | 160° | 62km/h | 12172m | 3.7m/s | -55.5°C | 33.5% | 0hPa | 0V | 00:00:00 | 00:00:00 | 00:00:00 | |
| LZ3DJ-18 | 2026-08-31 12:06:35 | 42.53905 | 23.49362 | 165° | 60km/h | 12068m | 4.0m/s | -55.0°C | 36.0% | 0hPa | 0V | 00:00:00 | 00:00:00 | 00:00:00 | |
| LZ3DJ-18 | 2026-08-31 12:05:54 | 42.54578 | 23.49139 | 170° | 71km/h | 11843m | 6.2m/s | -53.4°C | 42.1% | 0hPa | 0V | 00:00:00 | 00:00:00 | 00:00:00 | |
| LZ3DJ-18 | 2026-08-31 12:05:33 | 42.54954 | 23.49025 | 166° | 77km/h | 11734m | 4.0m/s | -52.4°C | 40.6% | 0hPa | 0V | 00:00:00 | 00:00:00 | 00:00:00 | |
| LZ4TU-5 | 2026-08-31 12:05:27 | 42.55064 | 23.48994 | 171° | 73km/h | 11704m | 5.9m/s | 0°C | 0% | 0hPa | 0V | 00:00:00 | 00:00:00 | 00:00:00 | |
| LZ4TU-5 | 2026-08-31 12:05:23 | 42.55139 | 23.48974 | 171° | 77km/h | 11683m | 6.1m/s | 0°C | 0% | 0hPa | 0V | 00:00:00 | 00:00:00 | 00:00:00 | |
| LZ3DJ-18 | 2026-08-31 12:05:12 | 42.55340 | 23.48919 | 169° | 71km/h | 11627m | 5.0m/s | -51.6°C | 37.8% | 0hPa | 0V | 00:00:00 | 00:00:00 | 00:00:00 | |
| LZ3DJ-18 | 2026-08-31 12:04:52 | 42.55700 | 23.48818 | 172° | 77km/h | 11534m | 6.2m/s | -50.9°C | 37.7% | 0hPa | 0V | 00:00:00 | 00:00:00 | 00:00:00 | |
| LZ3DJ-18 | 2026-08-31 12:04:31 | 42.56082 | 23.48684 | 161° | 68km/h | 11433m | 4.4m/s | -50.1°C | 37.5% | 0hPa | 0V | 00:00:00 | 00:00:00 | 00:00:00 | |
| LZ3DJ-18 | 2026-08-31 12:04:10 | 42.56446 | 23.48575 | 173° | 75km/h | 11335m | 6.5m/s | -49.3°C | 43.4% | 0hPa | 0V | 00:00:00 | 00:00:00 | 00:00:00 | |
| LZ3DJ-18 | 2026-08-31 12:03:50 | 42.56825 | 23.48457 | 167° | 64km/h | 11227m | 4.2m/s | -48.3°C | 38.3% | 0hPa | 0V | 00:00:00 | 00:00:00 | 00:00:00 | |
| LZ4TU-5 | 2026-08-31 12:03:46 | 42.56892 | 23.48435 | 169° | 73km/h | 11207m | 7.5m/s | 0°C | 0% | 0hPa | 0V | 00:00:00 | 00:00:00 | 00:00:00 | |
| LZ4TU-5 | 2026-08-31 12:03:42 | 42.56968 | 23.48416 | 169° | 73km/h | 11185m | 3.3m/s | 0°C | 0% | 0hPa | 0V | 00:00:00 | 00:00:00 | 00:00:00 | |
| LZ3DJ-18 | 2026-08-31 12:03:30 | 42.57171 | 23.48352 | 164° | 77km/h | 11122m | 5.5m/s | -47.4°C | 33.5% | 0hPa | 0V | 00:00:00 | 00:00:00 | 00:00:00 | |
| LZ3DJ-18 | 2026-08-31 12:03:10 | 42.57516 | 23.48222 | 162° | 69km/h | 11028m | 4.9m/s | -46.5°C | 29.3% | 0hPa | 0V | 00:00:00 | 00:00:00 | 00:00:00 | |
| LZ3DJ-18 | 2026-08-31 12:02:49 | 42.57862 | 23.48096 | 166° | 71km/h | 10929m | 4.9m/s | -45.7°C | 24.3% | 0hPa | 0V | 00:00:00 | 00:00:00 | 00:00:00 | |
| LZ3DJ-18 | 2026-08-31 12:02:29 | 42.58203 | 23.47943 | 162° | 69km/h | 10831m | 3.8m/s | -45.3°C | 28.0% | 0hPa | 0V | 00:00:00 | 00:00:00 | 00:00:00 | |
| LZ3DJ-18 | 2026-08-31 12:02:08 | 42.58562 | 23.47750 | 157° | 73km/h | 10716m | 5.2m/s | -44.3°C | 26.1% | 0hPa | 0V | 00:00:00 | 00:00:00 | 00:00:00 | |
| LZ4TU-5 | 2026-08-31 12:02:04 | 42.58630 | 23.47709 | 157° | 73km/h | 10697m | 7.5m/s | 0°C | 0% | 0hPa | 0V | 00:00:00 | 00:00:00 | 00:00:00 | |
| LZ4TU-5 | 2026-08-31 12:01:59 | 42.58704 | 23.47673 | 163° | 57km/h | 10672m | 5.7m/s | 0°C | 0% | 0hPa | 0V | 00:00:00 | 00:00:00 | 00:00:00 | |
| LZ3DJ-18 | 2026-08-31 12:01:45 | 42.58928 | 23.47548 | 156° | 71km/h | 10595m | 4.2m/s | -43.3°C | 23.2% | 0hPa | 0V | 00:00:00 | 00:00:00 | 00:00:00 | |
| LZ3DJ-18 | 2026-08-31 12:01:24 | 42.59209 | 23.47391 | 166° | 55km/h | 10490m | 4.6m/s | -42.8°C | 20.8% | 0hPa | 0V | 00:00:00 | 00:00:00 | 00:00:00 | |
| LZ3DJ-18 | 2026-08-31 12:01:00 | 42.59531 | 23.47245 | 163° | 53km/h | 10371m | 6.0m/s | -42.2°C | 26.9% | 0hPa | 0V | 00:00:00 | 00:00:00 | 00:00:00 | |
| LZ3DJ-18 | 2026-08-31 12:00:40 | 42.59788 | 23.47137 | 163° | 46km/h | 10260m | 7.2m/s | -41.6°C | 29.4% | 0hPa | 0V | 00:00:00 | 00:00:00 | 00:00:00 | |
| LZ4TU-5 | 2026-08-31 12:00:22 | 42.59990 | 23.47019 | 154° | 47km/h | 10164m | 4.6m/s | 0°C | 0% | 0hPa | 0V | 00:00:00 | 00:00:00 | 00:00:00 | |
| LZ3DJ-18 | 2026-08-31 12:00:20 | 42.60012 | 23.47006 | 159° | 49km/h | 10152m | 5.2m/s | -40.6°C | 27.5% | 0hPa | 0V | 00:00:00 | 00:00:00 | 00:00:00 | |
| LZ4TU-5 | 2026-08-31 12:00:19 | 42.60036 | 23.46994 | 163° | 51km/h | 10143m | 3.5m/s | 0°C | 0% | 0hPa | 0V | 00:00:00 | 00:00:00 | 00:00:00 | |
| LZ3DJ-18 | 2026-08-31 12:00:00 | 42.60237 | 23.46858 | 145° | 53km/h | 10052m | 0.4m/s | -39.6°C | 24.5% | 0hPa | 0V | 00:00:00 | 00:00:00 | 00:00:00 | |
| LZ3DJ-18 | 2026-08-31 11:59:39 | 42.60480 | 23.46667 | 151° | 55km/h | 9948m | 4.0m/s | -38.8°C | 24.1% | 0hPa | 0V | 00:00:00 | 00:00:00 | 00:00:00 | |
| LZ3DJ-18 | 2026-08-31 11:59:18 | 42.60723 | 23.46488 | 155° | 49km/h | 9846m | 2.8m/s | -37.9°C | 20.4% | 0hPa | 0V | 00:00:00 | 00:00:00 | 00:00:00 | |
| LZ3DJ-18 | 2026-08-31 11:58:58 | 42.60926 | 23.46316 | 141° | 33km/h | 9750m | 3.9m/s | -37.1°C | 15.3% | 0hPa | 0V | 00:00:00 | 00:00:00 | 00:00:00 | |
| LZ3DJ-18 | 2026-08-31 11:58:37 | 42.61136 | 23.46145 | 150° | 46km/h | 9634m | 5.0m/s | -36.0°C | 14.8% | 0hPa | 0V | 00:00:00 | 00:00:00 | 00:00:00 | |
| LZ4TU-5 | 2026-08-31 11:58:34 | 42.61164 | 23.46124 | 155° | 42km/h | 9616m | 6.8m/s | 0°C | 0% | 0hPa | 0V | 00:00:00 | 00:00:00 | 00:00:00 | |
| LZ4TU-5 | 2026-08-31 11:58:30 | 42.61203 | 23.46089 | 140° | 49km/h | 9595m | 5.2m/s | 0°C | 0% | 0hPa | 0V | 00:00:00 | 00:00:00 | 00:00:00 | |
| LZ3DJ-18 | 2026-08-31 11:58:16 | 42.61334 | 23.45948 | 152° | 47km/h | 9515m | 4.2m/s | -35.1°C | 15.1% | 0hPa | 0V | 00:00:00 | 00:00:00 | 00:00:00 | |
| LZ3DJ-18 | 2026-08-31 11:57:55 | 42.61525 | 23.45754 | 147° | 47km/h | 9397m | 5.9m/s | -34.0°C | 13.4% | 0hPa | 0V | 00:00:00 | 00:00:00 | 00:00:00 | |
| LZ3DJ-18 | 2026-08-31 11:57:34 | 42.61714 | 23.45561 | 146° | 46km/h | 9283m | 3.8m/s | -33.0°C | 10.6% | 0hPa | 0V | 00:00:00 | 00:00:00 | 00:00:00 | |
| LZ3DJ-18 | 2026-08-31 11:57:03 | 42.61975 | 23.45260 | 138° | 37km/h | 9113m | 6.2m/s | -31.5°C | 14.0% | 0hPa | 0V | 00:00:00 | 00:00:00 | 00:00:00 | |
| LZ4TU-5 | 2026-08-31 11:56:51 | 42.62064 | 23.45146 | 141° | 37km/h | 9050m | 4.2m/s | 0°C | 0% | 0hPa | 0V | 00:00:00 | 00:00:00 | 00:00:00 | |
| LZ4TU-5 | 2026-08-31 11:56:47 | 42.62094 | 23.45116 | 146° | 37km/h | 9029m | 3.8m/s | 0°C | 0% | 0hPa | 0V | 00:00:00 | 00:00:00 | 00:00:00 | |
| LZ3DJ-18 | 2026-08-31 11:56:42 | 42.62127 | 23.45075 | 130° | 33km/h | 9001m | 5.8m/s | -30.4°C | 13.1% | 0hPa | 0V | 00:00:00 | 00:00:00 | 00:00:00 | |
| LZ3DJ-18 | 2026-08-31 11:56:22 | 42.62266 | 23.44905 | 148° | 33km/h | 8893m | 4.9m/s | -29.5°C | 12.6% | 0hPa | 0V | 00:00:00 | 00:00:00 | 00:00:00 | |
| LZ3DJ-18 | 2026-08-31 11:56:00 | 42.62392 | 23.44713 | 118° | 31km/h | 8775m | 7.1m/s | -28.8°C | 12.7% | 0hPa | 0V | 00:00:00 | 00:00:00 | 00:00:00 | |
| LZ3DJ-18 | 2026-08-31 11:55:40 | 42.62491 | 23.44550 | 131° | 31km/h | 8661m | 5.9m/s | -27.9°C | 13.6% | 0hPa | 0V | 00:00:00 | 00:00:00 | 00:00:00 | |
| LZ3DJ-18 | 2026-08-31 11:55:20 | 42.62568 | 23.44357 | 108° | 27km/h | 8548m | 2.6m/s | -26.9°C | 14.2% | 0hPa | 0V | 00:00:00 | 00:00:00 | 00:00:00 | |
| LZ3DJ-18 | 2026-08-31 11:54:58 | 42.62640 | 23.44209 | 125° | 26km/h | 8423m | 3.1m/s | -26.1°C | 14.8% | 0hPa | 0V | 00:00:00 | 00:00:00 | 00:00:00 | |
| LZ4TU-5 | 2026-08-31 11:54:54 | 42.62650 | 23.44182 | 107° | 22km/h | 8402m | 5.9m/s | 0°C | 0% | 0hPa | 0V | 00:00:00 | 00:00:00 | 00:00:00 | |
| LZ4TU-5 | 2026-08-31 11:54:49 | 42.62659 | 23.44151 | 143° | 16km/h | 8373m | 4.7m/s | 0°C | 0% | 0hPa | 0V | 00:00:00 | 00:00:00 | 00:00:00 | |
| LZ3DJ-18 | 2026-08-31 11:54:37 | 42.62673 | 23.44086 | 119° | 16km/h | 8304m | 7.0m/s | -25.1°C | 13.2% | 0hPa | 0V | 00:00:00 | 00:00:00 | 00:00:00 | |
| LZ3DJ-18 | 2026-08-31 11:54:17 | 42.62696 | 23.43928 | 119° | 27km/h | 8198m | 6.2m/s | -24.3°C | 14.3% | 0hPa | 0V | 00:00:00 | 00:00:00 | 00:00:00 | |
| LZ3DJ-18 | 2026-08-31 11:53:56 | 42.62741 | 23.43739 | 123° | 27km/h | 8083m | 5.6m/s | -23.3°C | 10.1% | 0hPa | 0V | 00:00:00 | 00:00:00 | 00:00:00 | |
| LZ3DJ-18 | 2026-08-31 11:53:35 | 42.62801 | 23.43566 | 116° | 24km/h | 7968m | 5.9m/s | -22.3°C | 6.9% | 0hPa | 0V | 00:00:00 | 00:00:00 | 00:00:00 | |
| LZ3DJ-18 | 2026-08-31 11:53:14 | 42.62864 | 23.43372 | 95° | 33km/h | 7848m | 9.3m/s | -21.3°C | 6.3% | 0hPa | 0V | 00:00:00 | 00:00:00 | 00:00:00 | |
| LZ4TU-5 | 2026-08-31 11:53:11 | 42.62868 | 23.43337 | 103° | 35km/h | 7829m | 6.6m/s | 0°C | 0% | 0hPa | 0V | 00:00:00 | 00:00:00 | 00:00:00 | |
| LZ4TU-5 | 2026-08-31 11:53:07 | 42.62881 | 23.43289 | 116° | 33km/h | 7808m | 5.3m/s | 0°C | 0% | 0hPa | 0V | 00:00:00 | 00:00:00 | 00:00:00 | |
| LZ3DJ-18 | 2026-08-31 11:52:53 | 42.62912 | 23.43158 | 125° | 18km/h | 7726m | 4.1m/s | -20.2°C | 4.7% | 0hPa | 0V | 00:00:00 | 00:00:00 | 00:00:00 | |
| LZ3DJ-18 | 2026-08-31 11:52:32 | 42.62958 | 23.42968 | 124° | 27km/h | 7606m | 5.3m/s | -19.4°C | 5.0% | 0hPa | 0V | 00:00:00 | 00:00:00 | 00:00:00 | |
| LZ3DJ-18 | 2026-08-31 11:52:11 | 42.63020 | 23.42790 | 115° | 29km/h | 7487m | 3.3m/s | -18.4°C | 6.4% | 0hPa | 0V | 00:00:00 | 00:00:00 | 00:00:00 | |
| LZ3DJ-18 | 2026-08-31 11:51:51 | 42.63085 | 23.42633 | 134° | 22km/h | 7378m | 6.7m/s | -17.5°C | 5.8% | 0hPa | 0V | 00:00:00 | 00:00:00 | 00:00:00 | |
| LZ3DJ-18 | 2026-08-31 11:51:30 | 42.63138 | 23.42467 | 115° | 22km/h | 7266m | 5.8m/s | -16.6°C | 6.2% | 0hPa | 0V | 00:00:00 | 00:00:00 | 00:00:00 | |
| LZ4TU-5 | 2026-08-31 11:51:26 | 42.63147 | 23.42448 | 127° | 18km/h | 7239m | 3.6m/s | 0°C | 0% | 0hPa | 0V | 00:00:00 | 00:00:00 | 00:00:00 | |
| LZ4TU-5 | 2026-08-31 11:51:21 | 42.63158 | 23.42407 | 107° | 27km/h | 7214m | 5.7m/s | 0°C | 0% | 0hPa | 0V | 00:00:00 | 00:00:00 | 00:00:00 | |
| LZ3DJ-18 | 2026-08-31 11:51:09 | 42.63191 | 23.42316 | 132° | 26km/h | 7145m | 1.7m/s | -15.5°C | 6.5% | 0hPa | 0V | 00:00:00 | 00:00:00 | 00:00:00 | |
| LZ3DJ-18 | 2026-08-31 11:50:49 | 42.63255 | 23.42178 | 143° | 22km/h | 7036m | 6.6m/s | -14.7°C | 7.3% | 0hPa | 0V | 00:00:00 | 00:00:00 | 00:00:00 | |
| LZ3DJ-18 | 2026-08-31 11:50:28 | 42.63313 | 23.42032 | 118° | 26km/h | 6917m | 7.6m/s | -13.6°C | 4.8% | 0hPa | 0V | 00:00:00 | 00:00:00 | 00:00:00 | |
| LZ3DJ-18 | 2026-08-31 11:50:07 | 42.63360 | 23.41917 | 114° | 15km/h | 6807m | 6.4m/s | -12.7°C | 5.2% | 0hPa | 0V | 00:00:00 | 00:00:00 | 00:00:00 | |
| LZ3DJ-18 | 2026-08-31 11:49:48 | 42.63406 | 23.41790 | 107° | 24km/h | 6696m | 5.6m/s | -12.0°C | 5.6% | 0hPa | 0V | 00:00:00 | 00:00:00 | 00:00:00 | |
| LZ3DJ-18 | 2026-08-31 11:49:27 | 42.63442 | 23.41633 | 110° | 29km/h | 6588m | 5.4m/s | -11.1°C | 4.0% | 0hPa | 0V | 00:00:00 | 00:00:00 | 00:00:00 | |
| LZ3DJ-18 | 2026-08-31 11:49:07 | 42.63503 | 23.41489 | 153° | 22km/h | 6467m | 7.4m/s | -10.6°C | 3.6% | 0hPa | 0V | 00:00:00 | 00:00:00 | 00:00:00 | |
| LZ3DJ-18 | 2026-08-31 11:48:46 | 42.63602 | 23.41343 | 150° | 37km/h | 6343m | 6.7m/s | -9.9°C | 3.8% | 0hPa | 0V | 00:00:00 | 00:00:00 | 00:00:00 | |
| LZ3DJ-18 | 2026-08-31 11:48:26 | 42.63686 | 23.41196 | 148° | 18km/h | 6230m | 3.6m/s | -9.0°C | 3.5% | 0hPa | 0V | 00:00:00 | 00:00:00 | 00:00:00 | |
| LZ4TU-5 | 2026-08-31 11:48:05 | 42.63762 | 23.41053 | 131° | 31km/h | 6109m | 4.5m/s | 0°C | 0% | 0hPa | 0V | 00:00:00 | 00:00:00 | 00:00:00 | |
| LZ4TU-5 | 2026-08-31 11:48:00 | 42.63775 | 23.41023 | 122° | 16km/h | 6079m | 6.1m/s | 0°C | 0% | 0hPa | 0V | 00:00:00 | 00:00:00 | 00:00:00 | |
| LZ3DJ-18 | 2026-08-31 11:47:43 | 42.63831 | 23.40918 | 129° | 22km/h | 5984m | 7.1m/s | -7.6°C | 4.4% | 0hPa | 0V | 00:00:00 | 00:00:00 | 00:00:00 | |
| LZ3DJ-18 | 2026-08-31 11:47:22 | 42.63898 | 23.40830 | 152° | 13km/h | 5875m | 5.3m/s | -6.8°C | 4.3% | 0hPa | 0V | 00:00:00 | 00:00:00 | 00:00:00 | |
| LZ3DJ-18 | 2026-08-31 11:47:01 | 42.63955 | 23.40731 | 135° | 18km/h | 5761m | 5.6m/s | -6.0°C | 2.9% | 0hPa | 0V | 00:00:00 | 00:00:00 | 00:00:00 | |
| LZ3DJ-18 | 2026-08-31 11:46:41 | 42.64011 | 23.40656 | 146° | 24km/h | 5652m | 5.3m/s | -5.4°C | 2.7% | 0hPa | 0V | 00:00:00 | 00:00:00 | 00:00:00 | |
| LZ4TU-5 | 2026-08-31 11:46:22 | 42.64066 | 23.40573 | 135° | 16km/h | 5541m | 5.0m/s | 0°C | 0% | 0hPa | 0V | 00:00:00 | 00:00:00 | 00:00:00 | |
| LZ3DJ-18 | 2026-08-31 11:46:18 | 42.64075 | 23.40560 | 124° | 13km/h | 5525m | 4.2m/s | -5.0°C | 3.4% | 0hPa | 0V | 00:00:00 | 00:00:00 | 00:00:00 | |
| LZ4TU-5 | 2026-08-31 11:46:17 | 42.64078 | 23.40553 | 129° | 9km/h | 5515m | 6.1m/s | 0°C | 0% | 0hPa | 0V | 00:00:00 | 00:00:00 | 00:00:00 | |
| LZ3DJ-18 | 2026-08-31 11:45:58 | 42.64127 | 23.40494 | 115° | 20km/h | 5416m | 7.4m/s | -6.0°C | 22.6% | 0hPa | 0V | 00:00:00 | 00:00:00 | 00:00:00 | |
| LZ3DJ-18 | 2026-08-31 11:45:31 | 42.64191 | 23.40358 | 103° | 22km/h | 5270m | 4.5m/s | -6.2°C | 58.4% | 0hPa | 0V | 00:00:00 | 00:00:00 | 00:00:00 | |
| LZ3DJ-18 | 2026-08-31 11:45:11 | 42.64203 | 23.40263 | 88° | 16km/h | 5156m | 1.1m/s | -5.3°C | 58.6% | 0hPa | 0V | 00:00:00 | 00:00:00 | 00:00:00 | |
| LZ3DJ-18 | 2026-08-31 11:44:46 | 42.64216 | 23.40125 | 82° | 29km/h | 5016m | 4.9m/s | -5.1°C | 73.7% | 0hPa | 0V | 00:00:00 | 00:00:00 | 00:00:00 | |
| LZ4TU-5 | 2026-08-31 11:44:41 | 42.64207 | 23.40088 | 78° | 18km/h | 4988m | 6.6m/s | 0°C | 0% | 0hPa | 0V | 00:00:00 | 00:00:00 | 00:00:00 | |
| LZ4TU-5 | 2026-08-31 11:44:37 | 42.64204 | 23.40067 | 71° | 9km/h | 4965m | 5.4m/s | 0°C | 0% | 0hPa | 0V | 00:00:00 | 00:00:00 | 00:00:00 | |
| LZ3DJ-18 | 2026-08-31 11:44:26 | 42.64206 | 23.40036 | 108° | 5km/h | 4898m | 3.0m/s | -4.3°C | 58.3% | 0hPa | 0V | 00:00:00 | 00:00:00 | 00:00:00 | |
| LZ3DJ-18 | 2026-08-31 11:44:05 | 42.64241 | 23.39937 | 132° | 27km/h | 4800m | 4.5m/s | -3.5°C | 57.0% | 0hPa | 0V | 00:00:00 | 00:00:00 | 00:00:00 | |
| LZ3DJ-18 | 2026-08-31 11:43:45 | 42.64271 | 23.39785 | 102° | 26km/h | 4677m | 5.1m/s | -2.8°C | 83.8% | 0hPa | 0V | 00:00:00 | 00:00:00 | 00:00:00 | |
| LZ3DJ-18 | 2026-08-31 11:43:25 | 42.64275 | 23.39611 | 117° | 16km/h | 4560m | 5.3m/s | -2.0°C | 78.6% | 0hPa | 0V | 00:00:00 | 00:00:00 | 00:00:00 | |
| LZ3DJ-18 | 2026-08-31 11:43:02 | 42.64325 | 23.39470 | 111° | 20km/h | 4428m | 5.5m/s | -1.1°C | 78.4% | 0hPa | 0V | 00:00:00 | 00:00:00 | 00:00:00 | |
| LZ4TU-5 | 2026-08-31 11:42:50 | 42.64353 | 23.39392 | 115° | 22km/h | 4353m | 6.3m/s | 0°C | 0% | 0hPa | 0V | 00:00:00 | 00:00:00 | 00:00:00 | |
| LZ4TU-5 | 2026-08-31 11:42:45 | 42.64358 | 23.39366 | 107° | 13km/h | 4326m | 5.4m/s | 0°C | 0% | 0hPa | 0V | 00:00:00 | 00:00:00 | 00:00:00 | |
| LZ3DJ-18 | 2026-08-31 11:42:42 | 42.64364 | 23.39358 | 146° | 13km/h | 4310m | 4.1m/s | -0.0°C | 73.5% | 0hPa | 0V | 00:00:00 | 00:00:00 | 00:00:00 | |
| LZ3DJ-18 | 2026-08-31 11:42:22 | 42.64421 | 23.39246 | 112° | 22km/h | 4193m | 4.1m/s | 0.8°C | 71.5% | 0hPa | 0V | 00:00:00 | 00:00:00 | 00:00:00 | |
| LZ3DJ-18 | 2026-08-31 11:42:01 | 42.64466 | 23.39116 | 124° | 33km/h | 4077m | 4.0m/s | 1.7°C | 71.0% | 0hPa | 0V | 00:00:00 | 00:00:00 | 00:00:00 | |
| LZ3DJ-18 | 2026-08-31 11:41:41 | 42.64509 | 23.39007 | 143° | 16km/h | 3954m | 6.4m/s | 2.2°C | 78.8% | 0hPa | 0V | 00:00:00 | 00:00:00 | 00:00:00 | |
| LZ3DJ-18 | 2026-08-31 11:41:20 | 42.64566 | 23.38907 | 69° | 11km/h | 3824m | 5.2m/s | 3.3°C | 73.3% | 0hPa | 0V | 00:00:00 | 00:00:00 | 00:00:00 | |
| LZ4TU-5 | 2026-08-31 11:41:09 | 42.64578 | 23.38872 | 129° | 11km/h | 3753m | 6.6m/s | 0°C | 0% | 0hPa | 0V | 00:00:00 | 00:00:00 | 00:00:00 | |
| LZ4TU-5 | 2026-08-31 11:41:05 | 42.64594 | 23.38860 | 141° | 24km/h | 3729m | 4.6m/s | 0°C | 0% | 0hPa | 0V | 00:00:00 | 00:00:00 | 00:00:00 | |
| LZ3DJ-18 | 2026-08-31 11:40:59 | 42.64611 | 23.38836 | 161° | 5km/h | 3702m | 5.5m/s | 4.0°C | 76.5% | 0hPa | 0V | 00:00:00 | 00:00:00 | 00:00:00 | |
| LZ3DJ-18 | 2026-08-31 11:40:38 | 42.64666 | 23.38747 | 81° | 11km/h | 3583m | 5.0m/s | 4.6°C | 82.2% | 0hPa | 0V | 00:00:00 | 00:00:00 | 00:00:00 | |
| LZ3DJ-18 | 2026-08-31 11:40:16 | 42.64738 | 23.38679 | 148° | 16km/h | 3465m | 8.9m/s | 5.3°C | 82.8% | 0hPa | 0V | 00:00:00 | 00:00:00 | 00:00:00 | |
| LZ3DJ-18 | 2026-08-31 11:39:56 | 42.64801 | 23.38634 | 138° | 20km/h | 3347m | 5.2m/s | 6.2°C | 82.8% | 0hPa | 0V | 00:00:00 | 00:00:00 | 00:00:00 | |
| LZ3DJ-18 | 2026-08-31 11:39:36 | 42.64845 | 23.38590 | 131° | 9km/h | 3218m | 7.8m/s | 7.1°C | 82.2% | 0hPa | 0V | 00:00:00 | 00:00:00 | 00:00:00 | |
| LZ4TU-5 | 2026-08-31 11:39:29 | 42.64862 | 23.38574 | 164° | 11km/h | 3177m | 7.5m/s | 0°C | 0% | 0hPa | 0V | 00:00:00 | 00:00:00 | 00:00:00 | |
| LZ4TU-5 | 2026-08-31 11:39:25 | 42.64875 | 23.38574 | 179° | 9km/h | 3151m | 7.0m/s | 0°C | 0% | 0hPa | 0V | 00:00:00 | 00:00:00 | 00:00:00 | |
| LZ3DJ-18 | 2026-08-31 11:39:15 | 42.64897 | 23.38550 | 98° | 7km/h | 3102m | 6.2m/s | 8.0°C | 83.6% | 0hPa | 0V | 00:00:00 | 00:00:00 | 00:00:00 | |
| LZ3DJ-18 | 2026-08-31 11:38:54 | 42.64940 | 23.38473 | 128° | 26km/h | 2979m | 4.0m/s | 9.0°C | 79.3% | 0hPa | 0V | 00:00:00 | 00:00:00 | 00:00:00 | |
| LZ3DJ-18 | 2026-08-31 11:38:34 | 42.64980 | 23.38391 | 142° | 26km/h | 2864m | 4.6m/s | 9.9°C | 75.6% | 0hPa | 0V | 00:00:00 | 00:00:00 | 00:00:00 | |
| LZ3DJ-18 | 2026-08-31 11:38:13 | 42.65031 | 23.38283 | 134° | 18km/h | 2747m | 5.0m/s | 10.7°C | 70.8% | 0hPa | 0V | 00:00:00 | 00:00:00 | 00:00:00 | |
| LZ3DJ-18 | 2026-08-31 11:37:52 | 42.65048 | 23.38218 | 30° | 5km/h | 2630m | 4.5m/s | 11.8°C | 67.4% | 0hPa | 0V | 00:00:00 | 00:00:00 | 00:00:00 | |
| LZ3DJ-18 | 2026-08-31 11:37:31 | 42.65066 | 23.38137 | 98° | 18km/h | 2504m | 4.8m/s | 13.0°C | 64.9% | 0hPa | 0V | 00:00:00 | 00:00:00 | 00:00:00 | |
| LZ3DJ-18 | 2026-08-31 11:37:11 | 42.65108 | 23.38080 | 145° | 7km/h | 2384m | 5.6m/s | 14.1°C | 62.8% | 0hPa | 0V | 00:00:00 | 00:00:00 | 00:00:00 | |
| LZ4TU-5 | 2026-08-31 11:37:01 | 42.65133 | 23.38059 | 148° | 13km/h | 2327m | 6.5m/s | 0°C | 0% | 0hPa | 0V | 00:00:00 | 00:00:00 | 00:00:00 | |
| LZ4TU-5 | 2026-08-31 11:36:57 | 42.65147 | 23.38048 | 163° | 11km/h | 2296m | 6.4m/s | 0°C | 0% | 0hPa | 0V | 00:00:00 | 00:00:00 | 00:00:00 | |
| LZ3DJ-18 | 2026-08-31 11:36:50 | 42.65168 | 23.38038 | 174° | 18km/h | 2257m | 6.8m/s | 15.2°C | 58.9% | 0hPa | 0V | 00:00:00 | 00:00:00 | 00:00:00 | |
| LZ3DJ-18 | 2026-08-31 11:36:30 | 42.65217 | 23.38034 | 165° | 2km/h | 2129m | 5.7m/s | 15.7°C | 59.5% | 0hPa | 0V | 00:00:00 | 00:00:00 | 00:00:00 | |
| LZ3DJ-18 | 2026-08-31 11:36:10 | 42.65241 | 23.38030 | 281° | 4km/h | 2020m | 9.1m/s | 16.2°C | 65.6% | 0hPa | 0V | 00:00:00 | 00:00:00 | 00:00:00 | |
| LZ3DJ-18 | 2026-08-31 11:35:50 | 42.65264 | 23.38023 | 149° | 7km/h | 1872m | 8.3m/s | 17.8°C | 59.9% | 0hPa | 0V | 00:00:00 | 00:00:00 | 00:00:00 | |
| LZ4TU-5 | 2026-08-31 11:35:35 | 42.65291 | 23.37993 | 129° | 16km/h | 1756m | 8.4m/s | 0°C | 0% | 0hPa | 0V | 00:00:00 | 00:00:00 | 00:00:00 | |
| LZ4TU-5 | 2026-08-31 11:35:31 | 42.65301 | 23.37986 | 176° | 4km/h | 1725m | 9.7m/s | 0°C | 0% | 0hPa | 0V | 00:00:00 | 00:00:00 | 00:00:00 | |
| LZ3DJ-18 | 2026-08-31 11:35:30 | 42.65302 | 23.37986 | 193° | 4km/h | 1716m | 9.2m/s | 19.2°C | 55.3% | 0hPa | 0V | 00:00:00 | 00:00:00 | 00:00:00 | |
| LZ3DJ-18 | 2026-08-31 11:35:09 | 42.65351 | 23.38034 | 237° | 15km/h | 1572m | 4.2m/s | 20.5°C | 51.4% | 0hPa | 0V | 00:00:00 | 00:00:00 | 00:00:00 | |
| LZ3DJ-18 | 2026-08-31 11:34:49 | 42.65386 | 23.38106 | 276° | 15km/h | 1465m | 4.6m/s | 21.6°C | 48.6% | 0hPa | 0V | 00:00:00 | 00:00:00 | 00:00:00 | |
| LZ3DJ-18 | 2026-08-31 11:34:28 | 42.65418 | 23.38136 | 215° | 11km/h | 1351m | 7.0m/s | 22.8°C | 45.2% | 0hPa | 0V | 00:00:00 | 00:00:00 | 00:00:00 | |
| LZ3DJ-18 | 2026-08-31 11:34:06 | 42.65408 | 23.38201 | 271° | 11km/h | 1202m | 7.3m/s | 0°C | 0% | 0hPa | 0V | 00:00:00 | 00:00:00 | 00:00:00 | |
| LZ3DJ-18 | 2026-08-31 11:33:46 | 42.65396 | 23.38252 | 326° | 9km/h | 1056m | 7.0m/s | 0°C | 0% | 0hPa | 0V | 00:00:00 | 00:00:00 | 00:00:00 | |
| LZ3DJ-18 | 2026-08-31 11:33:26 | 42.65397 | 23.38280 | 266° | 15km/h | 876m | 7.9m/s | 0°C | 0% | 0hPa | 0V | 00:00:00 | 00:00:00 | 00:00:00 |